Time;durP1;ratioP1;P1;durP2;ratioP2;P2;SDS_P1;SDS_P2;PMS_P1;PMS_P2;Temp;Humidity;BMP_temperature;BMP_pressure;BME280_temperature;BME280_humidity;BME280_pressure;Samples;Min_cycle;Max_cycle;Signal;HPM_P1;HPM_P2
2024/02/29 00:00:28;;;;;;;3.67;2.47;;;8.30;99.90;;;;;;5073645;28;20474;-48
2024/02/29 00:02:56;;;;;;;4.80;3.93;;;8.30;99.90;;;;;;5074755;28;20529;-47
2024/02/29 00:05:26;;;;;;;3.88;3.03;;;8.30;99.90;;;;;;5070110;28;21022;-47
2024/02/29 00:07:56;;;;;;;5.20;3.30;;;8.30;99.90;;;;;;5059642;28;20275;-47
2024/02/29 00:10:25;;;;;;;4.47;3.00;;;8.40;99.90;;;;;;5077684;28;21016;-47
2024/02/29 00:12:57;;;;;;;4.23;3.17;;;8.40;99.90;;;;;;5076479;28;20414;-47
2024/02/29 00:15:29;;;;;;;3.50;3.10;;;8.40;99.90;;;;;;5073899;28;20478;-47
2024/02/29 00:17:57;;;;;;;4.13;3.60;;;8.40;99.90;;;;;;5076637;28;20465;-48
2024/02/29 00:20:26;;;;;;;3.13;2.50;;;8.40;99.90;;;;;;5069908;28;20520;-47
2024/02/29 00:22:56;;;;;;;4.20;2.60;;;8.30;99.90;;;;;;5076803;28;20849;-46
2024/02/29 00:25:26;;;;;;;4.43;2.73;;;8.40;99.90;;;;;;5072021;28;20561;-49
2024/02/29 00:27:58;;;;;;;3.30;2.83;;;8.40;99.90;;;;;;5076683;28;20525;-48
2024/02/29 00:30:28;;;;;;;4.87;3.17;;;8.40;99.90;;;;;;5077633;28;20458;-47
2024/02/29 00:32:56;;;;;;;4.30;2.57;;;8.40;99.90;;;;;;5074376;28;20469;-48
2024/02/29 00:35:26;;;;;;;3.63;2.70;;;8.40;99.90;;;;;;5070431;28;20474;-48
2024/02/29 00:37:54;;;;;;;3.20;2.67;;;8.40;99.90;;;;;;5076123;28;20487;-47
2024/02/29 00:40:25;;;;;;;3.67;2.50;;;8.40;99.90;;;;;;5057735;28;20831;-46
2024/02/29 00:42:57;;;;;;;3.83;2.43;;;8.40;99.90;;;;;;5076357;28;20469;-47
2024/02/29 00:45:28;;;;;;;3.23;2.60;;;8.40;99.90;;;;;;5072588;28;21033;-47
2024/02/29 00:47:56;;;;;;;3.17;2.53;;;8.40;99.90;;;;;;5072389;28;20446;-48
2024/02/29 00:50:25;;;;;;;3.93;3.50;;;8.30;99.90;;;;;;5066730;28;20500;-47
2024/02/29 00:52:56;;;;;;;2.93;2.43;;;8.30;99.90;;;;;;5074053;28;20938;-46
2024/02/29 00:55:26;;;;;;;4.30;3.57;;;8.30;99.90;;;;;;5055780;28;20466;-46
2024/02/29 00:57:55;;;;;;;3.87;3.00;;;8.40;99.90;;;;;;5053183;28;20470;-48
2024/02/29 01:00:25;;;;;;;4.60;3.00;;;8.30;99.90;;;;;;5074417;28;20469;-47
2024/02/29 01:02:57;;;;;;;5.30;3.00;;;8.30;99.90;;;;;;5073019;28;20442;-49
2024/02/29 01:05:26;;;;;;;3.77;2.93;;;8.30;99.90;;;;;;5073451;28;20476;-46
2024/02/29 01:07:56;;;;;;;4.00;2.83;;;8.30;99.90;;;;;;5075467;28;20419;-47
2024/02/29 01:10:25;;;;;;;4.40;3.40;;;8.30;99.90;;;;;;5077360;28;20466;-46
2024/02/29 01:12:53;;;;;;;3.77;2.53;;;8.30;99.90;;;;;;5074440;28;20430;-47
2024/02/29 01:15:24;;;;;;;4.33;2.97;;;8.30;99.90;;;;;;5074889;28;20458;-47
2024/02/29 01:17:52;;;;;;;3.90;2.80;;;8.30;99.90;;;;;;5070213;28;20493;-48
2024/02/29 01:20:22;;;;;;;4.53;3.73;;;8.30;99.90;;;;;;5073652;28;20508;-47
2024/02/29 01:22:51;;;;;;;5.63;3.53;;;8.30;99.90;;;;;;5069118;28;20432;-46
2024/02/29 01:25:19;;;;;;;4.90;3.53;;;8.30;99.90;;;;;;5075506;28;20473;-47
2024/02/29 01:27:48;;;;;;;5.43;2.97;;;8.30;99.90;;;;;;5065479;28;20430;-46
2024/02/29 01:30:17;;;;;;;3.83;2.93;;;8.30;99.90;;;;;;5073069;28;20549;-48
2024/02/29 01:32:45;;;;;;;4.23;3.30;;;8.30;99.90;;;;;;5075514;28;20431;-47
2024/02/29 01:35:16;;;;;;;4.53;3.07;;;8.30;99.90;;;;;;5068049;28;21200;-46
2024/02/29 01:37:47;;;;;;;4.43;3.10;;;8.30;99.90;;;;;;5074726;28;20462;-48
2024/02/29 01:40:18;;;;;;;4.60;3.70;;;8.30;99.90;;;;;;5073198;28;21068;-46
2024/02/29 01:42:46;;;;;;;5.43;3.30;;;8.30;99.90;;;;;;5074708;28;20890;-46
2024/02/29 01:45:16;;;;;;;6.80;4.43;;;8.30;99.90;;;;;;5074965;28;20462;-46
2024/02/29 01:47:45;;;;;;;4.70;3.20;;;8.30;99.90;;;;;;5057081;28;20454;-46
2024/02/29 01:50:17;;;;;;;3.53;2.97;;;8.30;99.90;;;;;;5062878;28;20836;-48
2024/02/29 01:52:47;;;;;;;4.27;3.13;;;8.30;99.90;;;;;;5072770;28;20438;-47
2024/02/29 01:55:15;;;;;;;4.40;3.50;;;8.30;99.90;;;;;;5074347;28;20520;-48
2024/02/29 01:57:46;;;;;;;5.20;3.53;;;8.30;99.90;;;;;;5068124;28;20458;-47
2024/02/29 02:00:17;;;;;;;8.37;4.67;;;8.30;99.90;;;;;;5070583;28;20459;-46
2024/02/29 02:02:45;;;;;;;4.93;3.50;;;8.30;99.90;;;;;;5072502;28;20467;-49
2024/02/29 02:05:15;;;;;;;3.57;2.80;;;8.30;99.90;;;;;;5065010;28;20473;-47
2024/02/29 02:07:45;;;;;;;4.77;3.03;;;8.30;99.90;;;;;;5073921;28;20438;-46
2024/02/29 02:10:16;;;;;;;6.33;4.40;;;8.30;99.90;;;;;;5062978;28;20838;-46
2024/02/29 02:12:47;;;;;;;3.77;3.30;;;8.30;99.90;;;;;;5074728;28;20523;-46
2024/02/29 02:15:15;;;;;;;6.70;4.30;;;8.30;99.90;;;;;;5074406;28;21010;-48
2024/02/29 02:17:45;;;;;;;5.47;3.80;;;8.30;99.90;;;;;;5075116;28;21009;-47
2024/02/29 02:20:18;;;;;;;5.10;3.10;;;8.30;99.90;;;;;;5065787;28;20480;-47
2024/02/29 02:22:47;;;;;;;4.93;3.47;;;8.30;99.90;;;;;;5074076;28;20958;-48
2024/02/29 02:25:16;;;;;;;4.50;3.63;;;8.30;99.90;;;;;;5054067;28;20462;-46
2024/02/29 02:27:45;;;;;;;4.50;3.40;;;8.30;99.90;;;;;;5072114;28;20537;-47
2024/02/29 02:30:16;;;;;;;6.10;4.30;;;8.30;99.90;;;;;;5070741;28;20457;-47
2024/02/29 02:32:45;;;;;;;5.13;3.30;;;8.30;99.90;;;;;;5069322;28;20499;-46
2024/02/29 02:35:15;;;;;;;3.70;2.87;;;8.30;99.90;;;;;;5066959;28;20470;-46
2024/02/29 02:37:49;;;;;;;4.63;3.73;;;8.30;99.90;;;;;;5073711;28;20508;-47
2024/02/29 02:40:18;;;;;;;3.57;2.50;;;8.30;99.90;;;;;;5071244;28;20476;-49
2024/02/29 02:42:46;;;;;;;5.70;3.40;;;8.30;99.90;;;;;;5073651;28;20445;-45
2024/02/29 02:45:16;;;;;;;6.30;3.90;;;8.30;99.90;;;;;;5075625;28;21017;-47
2024/02/29 02:47:44;;;;;;;7.70;4.93;;;8.20;99.90;;;;;;5075584;28;20521;-48
2024/02/29 02:50:12;;;;;;;5.73;3.90;;;8.20;99.90;;;;;;5050357;28;20883;-48
2024/02/29 02:52:41;;;;;;;5.43;4.00;;;8.20;99.90;;;;;;5074304;28;20783;-46
2024/02/29 02:55:12;;;;;;;3.83;2.90;;;8.20;99.90;;;;;;5068711;28;20513;-47
2024/02/29 02:57:40;;;;;;;4.23;3.10;;;8.20;99.90;;;;;;5068196;28;20961;-46
2024/02/29 03:00:10;;;;;;;5.17;3.50;;;8.20;99.90;;;;;;5072462;28;20458;-46
2024/02/29 03:02:40;;;;;;;4.43;3.30;;;8.20;99.90;;;;;;5067977;28;20449;-46
2024/02/29 03:05:09;;;;;;;5.80;4.10;;;8.20;99.90;;;;;;5120768;22;21026;-45
2024/02/29 03:07:39;;;;;;;4.20;3.10;;;8.20;99.90;;;;;;5067530;28;20443;-47
2024/02/29 03:10:09;;;;;;;4.40;3.50;;;8.20;99.90;;;;;;5069400;28;20497;-45
2024/02/29 03:12:39;;;;;;;4.60;3.20;;;8.20;99.90;;;;;;5069881;28;20431;-46
2024/02/29 03:15:09;;;;;;;5.33;3.67;;;8.20;99.90;;;;;;5066037;28;20523;-45
2024/02/29 03:17:37;;;;;;;5.60;3.70;;;8.20;99.90;;;;;;5070994;28;20449;-46
2024/02/29 03:20:11;;;;;;;5.90;4.20;;;8.20;99.90;;;;;;5062104;28;20469;-47
2024/02/29 03:22:42;;;;;;;5.27;3.73;;;8.20;99.90;;;;;;5070914;28;20946;-46
2024/02/29 03:25:10;;;;;;;5.40;4.00;;;8.20;99.90;;;;;;5068645;28;21010;-47
2024/02/29 03:27:40;;;;;;;5.65;3.58;;;8.10;99.90;;;;;;5064732;28;20447;-47
2024/02/29 03:30:09;;;;;;;4.43;3.80;;;8.20;99.90;;;;;;5069834;28;20758;-47
2024/02/29 03:32:38;;;;;;;4.63;3.13;;;8.20;99.90;;;;;;5068689;28;20521;-46
2024/02/29 03:35:08;;;;;;;6.18;4.25;;;8.10;99.90;;;;;;5059166;28;20479;-46
2024/02/29 03:37:36;;;;;;;6.67;3.67;;;8.10;99.90;;;;;;5069934;28;20310;-46
2024/02/29 03:40:08;;;;;;;6.00;3.90;;;8.20;99.90;;;;;;5046756;28;20464;-48
2024/02/29 03:42:40;;;;;;;4.65;3.60;;;8.10;99.90;;;;;;5068079;28;20226;-47
2024/02/29 03:45:09;;;;;;;4.33;3.80;;;8.10;99.90;;;;;;5049832;28;20218;-47
2024/02/29 03:47:38;;;;;;;5.05;3.35;;;8.10;99.90;;;;;;5064094;28;20469;-46
2024/02/29 03:50:10;;;;;;;4.82;3.30;;;8.10;99.90;;;;;;5061402;28;20222;-47
2024/02/29 03:52:38;;;;;;;4.63;3.28;;;8.10;99.90;;;;;;5067631;28;20707;-46
2024/02/29 03:55:09;;;;;;;4.13;3.10;;;8.10;99.90;;;;;;5065581;28;20261;-45
2024/02/29 03:57:37;;;;;;;3.97;2.83;;;8.10;99.90;;;;;;5062847;28;20493;-47
2024/02/29 04:00:10;;;;;;;4.85;3.30;;;8.10;99.90;;;;;;5069328;28;20461;-46
2024/02/29 04:02:40;;;;;;;5.20;4.40;;;8.10;99.90;;;;;;5069150;28;20557;-47
2024/02/29 04:05:09;;;;;;;5.33;3.50;;;8.10;99.90;;;;;;5059321;28;20477;-46
2024/02/29 04:07:38;;;;;;;4.37;3.00;;;8.10;99.90;;;;;;5049524;28;20427;-46
2024/02/29 04:10:08;;;;;;;4.30;3.00;;;8.10;99.90;;;;;;5069514;28;20835;-46
2024/02/29 04:12:37;;;;;;;4.43;3.40;;;8.10;99.90;;;;;;5070072;28;20427;-47
2024/02/29 04:15:09;;;;;;;4.90;3.30;;;8.10;99.90;;;;;;5064437;28;20488;-45
2024/02/29 04:17:38;;;;;;;3.60;2.67;;;8.10;99.90;;;;;;5066664;28;20521;-47
2024/02/29 04:20:08;;;;;;;4.67;2.90;;;8.10;99.90;;;;;;5062521;28;20477;-47
2024/02/29 04:22:38;;;;;;;5.33;3.50;;;8.10;99.90;;;;;;5068832;28;20923;-48
2024/02/29 04:25:10;;;;;;;5.30;3.67;;;8.10;99.90;;;;;;5060344;28;20478;-48
2024/02/29 04:27:41;;;;;;;4.63;3.78;;;8.10;99.90;;;;;;5069351;28;20654;-46
2024/02/29 04:30:14;;;;;;;5.53;3.70;;;8.10;99.90;;;;;;5069985;28;20262;-47
2024/02/29 04:32:46;;;;;;;4.32;3.42;;;8.10;99.90;;;;;;5070014;28;20452;-46
2024/02/29 04:35:14;;;;;;;4.63;3.40;;;8.10;99.90;;;;;;5059658;28;20243;-47
2024/02/29 04:37:42;;;;;;;5.75;3.55;;;8.10;99.90;;;;;;5070305;28;20437;-45
2024/02/29 04:40:12;;;;;;;4.80;3.23;;;8.10;99.90;;;;;;5069630;28;20215;-47
2024/02/29 04:42:41;;;;;;;4.37;3.70;;;8.00;99.90;;;;;;5061358;28;21014;-47
2024/02/29 04:45:13;;;;;;;4.83;3.30;;;8.00;99.90;;;;;;5068167;28;20465;-47
2024/02/29 04:47:41;;;;;;;5.78;3.45;;;8.10;99.90;;;;;;5063934;28;20469;-47
2024/02/29 04:50:10;;;;;;;7.30;4.50;;;8.00;99.90;;;;;;5061782;28;20208;-46
2024/02/29 04:52:40;;;;;;;3.53;3.00;;;8.10;99.90;;;;;;5068210;28;20252;-45
2024/02/29 04:55:12;;;;;;;4.10;3.10;;;8.00;99.90;;;;;;5066699;28;20619;-44
2024/02/29 04:57:40;;;;;;;4.47;2.93;;;8.00;99.90;;;;;;5061530;28;20248;-47
2024/02/29 05:00:10;;;;;;;6.28;3.67;;;8.00;99.90;;;;;;5066374;28;20495;-47
2024/02/29 05:02:39;;;;;;;5.23;3.13;;;8.00;99.90;;;;;;5069013;28;20488;-46
2024/02/29 05:05:08;;;;;;;5.60;3.43;;;8.00;99.90;;;;;;5057678;28;20838;-45
2024/02/29 05:07:37;;;;;;;5.30;3.45;;;8.00;99.90;;;;;;5068777;28;20427;-45
2024/02/29 05:10:08;;;;;;;5.57;3.60;;;8.00;99.90;;;;;;5058852;28;20210;-47
2024/02/29 05:12:37;;;;;;;5.38;3.80;;;8.00;99.90;;;;;;5067176;28;20279;-44
2024/02/29 05:15:07;;;;;;;5.85;3.53;;;8.00;99.90;;;;;;5068130;28;20283;-46
2024/02/29 05:17:36;;;;;;;4.93;3.45;;;8.00;99.90;;;;;;5067132;28;20199;-45
2024/02/29 05:20:10;;;;;;;5.90;4.20;;;8.00;99.90;;;;;;5067671;28;20224;-45
2024/02/29 05:22:38;;;;;;;4.78;3.17;;;8.00;99.90;;;;;;5068164;28;20196;-47
2024/02/29 05:25:09;;;;;;;5.10;3.50;;;7.90;99.90;;;;;;5067317;28;20215;-45
2024/02/29 05:27:38;;;;;;;6.95;3.95;;;7.90;99.90;;;;;;5066376;28;20282;-45
2024/02/29 05:30:08;;;;;;;5.10;3.70;;;7.90;99.90;;;;;;5065591;28;20214;-47
2024/02/29 05:32:37;;;;;;;5.40;3.47;;;7.90;99.90;;;;;;5068699;28;20276;-47
2024/02/29 05:35:08;;;;;;;4.45;3.45;;;7.90;99.90;;;;;;5058570;28;20243;-47
2024/02/29 05:37:37;;;;;;;4.43;3.00;;;7.90;99.90;;;;;;5068282;28;20316;-46
2024/02/29 05:40:07;;;;;;;5.40;3.35;;;7.90;99.90;;;;;;5068526;28;20258;-46
2024/02/29 05:42:37;;;;;;;5.15;3.85;;;8.00;99.90;;;;;;5061740;28;20205;-46
2024/02/29 05:45:08;;;;;;;4.85;3.55;;;8.00;99.90;;;;;;5067603;28;20264;-47
2024/02/29 05:47:37;;;;;;;6.27;3.70;;;8.00;99.90;;;;;;5061025;28;20221;-45
2024/02/29 05:50:10;;;;;;;4.75;3.65;;;8.00;99.90;;;;;;5062040;28;20474;-46
2024/02/29 05:52:40;;;;;;;3.97;3.20;;;8.00;99.90;;;;;;5067663;28;20284;-47
2024/02/29 05:55:11;;;;;;;5.65;3.80;;;8.00;99.90;;;;;;5065717;28;20292;-47
2024/02/29 05:57:41;;;;;;;5.82;3.90;;;8.00;99.90;;;;;;5062595;28;20266;-47
2024/02/29 06:00:12;;;;;;;3.93;3.00;;;8.00;99.90;;;;;;5067950;28;20254;-44
2024/02/29 06:02:40;;;;;;;4.88;3.17;;;7.90;99.90;;;;;;5061852;28;20480;-46
2024/02/29 06:05:11;;;;;;;5.00;3.53;;;8.00;99.90;;;;;;5058257;28;20223;-47
2024/02/29 06:07:39;;;;;;;4.93;3.50;;;8.00;99.90;;;;;;5069398;28;20247;-47
2024/02/29 06:10:10;;;;;;;5.10;3.50;;;8.00;99.90;;;;;;5065488;28;20218;-45
2024/02/29 06:12:39;;;;;;;5.88;3.80;;;7.90;99.90;;;;;;5067810;28;20438;-44
2024/02/29 06:15:09;;;;;;;5.63;3.75;;;7.90;99.90;;;;;;5063478;28;20224;-46
2024/02/29 06:17:39;;;;;;;4.00;3.33;;;7.90;99.90;;;;;;5064659;28;20195;-46
2024/02/29 06:20:13;;;;;;;5.43;3.92;;;7.90;99.90;;;;;;5058789;28;20218;-46
2024/02/29 06:22:42;;;;;;;6.10;3.90;;;7.90;99.90;;;;;;5069193;28;20674;-47
2024/02/29 06:25:12;;;;;;;3.65;2.65;;;7.90;99.90;;;;;;5067063;28;20226;-47
2024/02/29 06:27:40;;;;;;;4.97;3.20;;;7.90;99.90;;;;;;5062653;28;20194;-47
2024/02/29 06:30:09;;;;;;;3.95;3.13;;;7.90;99.90;;;;;;5061551;28;20457;-45
2024/02/29 06:32:40;;;;;;;4.40;3.10;;;7.90;99.90;;;;;;5067860;28;20199;-47
2024/02/29 06:35:09;;;;;;;4.63;3.50;;;7.90;99.90;;;;;;5050006;28;20488;-44
2024/02/29 06:37:42;;;;;;;4.60;3.50;;;7.90;99.90;;;;;;5049989;28;20694;-45
2024/02/29 06:40:12;;;;;;;4.03;3.33;;;7.90;99.90;;;;;;5065530;28;20313;-47
2024/02/29 06:42:41;;;;;;;5.13;3.72;;;7.90;99.90;;;;;;5071468;28;20195;-44
2024/02/29 06:45:10;;;;;;;4.22;3.17;;;7.90;99.90;;;;;;5070941;28;20215;-46
2024/02/29 06:47:40;;;;;;;4.07;3.53;;;7.90;99.90;;;;;;5068072;28;20192;-46
2024/02/29 06:50:09;;;;;;;4.57;3.55;;;7.90;99.90;;;;;;5063092;28;20210;-45
2024/02/29 06:52:38;;;;;;;4.30;3.63;;;7.90;99.90;;;;;;5067701;28;20192;-46
2024/02/29 06:55:08;;;;;;;5.30;4.30;;;7.90;99.90;;;;;;5060587;28;20520;-46
2024/02/29 06:57:37;;;;;;;5.63;4.13;;;7.90;99.90;;;;;;5072481;28;20590;-46
2024/02/29 07:00:08;;;;;;;6.28;5.13;;;7.90;99.90;;;;;;5065803;28;20527;-47
2024/02/29 07:02:38;;;;;;;5.10;4.60;;;7.90;99.90;;;;;;5062966;28;20228;-47
2024/02/29 07:05:08;;;;;;;4.95;4.00;;;7.90;99.90;;;;;;5056117;28;20230;-45
2024/02/29 07:07:36;;;;;;;5.35;4.70;;;7.90;99.90;;;;;;5069582;28;20588;-47
2024/02/29 07:10:09;;;;;;;4.25;3.85;;;7.90;99.90;;;;;;5067413;28;20221;-45
2024/02/29 07:12:37;;;;;;;5.30;4.75;;;7.90;99.90;;;;;;5072154;28;20302;-44
2024/02/29 07:15:07;;;;;;;4.63;3.63;;;7.90;99.90;;;;;;5065422;28;20228;-46
2024/02/29 07:17:36;;;;;;;4.68;3.40;;;7.90;99.90;;;;;;5067824;28;20277;-46
2024/02/29 07:20:10;;;;;;;6.53;4.60;;;7.90;99.90;;;;;;5069509;28;20239;-47
2024/02/29 07:22:38;;;;;;;4.68;3.92;;;7.90;99.90;;;;;;5070290;28;20193;-45
2024/02/29 07:25:08;;;;;;;5.45;4.18;;;7.90;99.90;;;;;;5067653;28;20247;-46
2024/02/29 07:27:39;;;;;;;6.63;4.10;;;7.90;99.90;;;;;;5065217;28;20651;-47
2024/02/29 07:30:09;;;;;;;6.53;4.95;;;7.80;99.90;;;;;;5066219;28;20219;-45
2024/02/29 07:32:37;;;;;;;5.32;3.78;;;7.80;99.90;;;;;;5070818;28;20214;-45
2024/02/29 07:35:06;;;;;;;5.47;3.90;;;7.90;99.90;;;;;;5062614;28;20219;-44
2024/02/29 07:37:38;;;;;;;5.30;3.50;;;7.80;99.90;;;;;;5063505;28;20195;-46
2024/02/29 07:40:08;;;;;;;5.57;3.88;;;7.80;99.90;;;;;;5057708;28;20215;-47
2024/02/29 07:42:39;;;;;;;5.28;3.65;;;7.80;99.90;;;;;;5069159;28;20437;-45
2024/02/29 07:45:10;;;;;;;4.50;3.60;;;7.80;99.90;;;;;;5068624;28;20220;-47
2024/02/29 07:47:39;;;;;;;6.20;4.10;;;7.90;99.90;;;;;;5067158;28;20253;-46
2024/02/29 07:50:09;;;;;;;5.50;3.85;;;7.90;99.90;;;;;;5063025;28;20489;-46
2024/02/29 07:52:38;;;;;;;4.43;3.30;;;7.90;99.90;;;;;;5070865;28;20200;-47
2024/02/29 07:55:13;;;;;;;5.13;4.15;;;7.90;99.90;;;;;;5069520;28;20691;-48
2024/02/29 07:57:43;;;;;;;6.25;3.92;;;7.90;99.90;;;;;;5067412;28;20567;-48
2024/02/29 08:00:12;;;;;;;4.45;3.55;;;7.90;99.90;;;;;;5055613;28;20212;-46
2024/02/29 08:02:43;;;;;;;5.00;3.30;;;7.90;99.90;;;;;;5060101;28;20737;-46
2024/02/29 08:05:11;;;;;;;3.72;3.00;;;7.90;99.90;;;;;;5061503;28;20243;-45
2024/02/29 08:07:40;;;;;;;4.47;3.40;;;7.90;99.90;;;;;;5069112;28;20585;-46
2024/02/29 08:10:09;;;;;;;3.88;3.20;;;7.90;99.90;;;;;;5066417;28;20715;-45
2024/02/29 08:12:37;;;;;;;4.45;3.38;;;7.90;99.90;;;;;;5067879;28;20279;-47
2024/02/29 08:15:08;;;;;;;3.20;2.90;;;7.90;99.90;;;;;;5071140;28;20220;-46
2024/02/29 08:17:37;;;;;;;4.18;3.20;;;7.90;99.90;;;;;;5070212;28;20203;-46
2024/02/29 08:20:07;;;;;;;5.65;3.60;;;7.90;99.90;;;;;;5061190;28;20310;-46
2024/02/29 08:22:36;;;;;;;6.22;3.53;;;7.90;99.90;;;;;;5066021;28;20211;-45
2024/02/29 08:25:07;;;;;;;3.90;3.13;;;7.90;99.90;;;;;;5070006;28;20234;-44
2024/02/29 08:27:37;;;;;;;4.25;3.28;;;7.90;99.90;;;;;;5067681;28;20201;-47
2024/02/29 08:30:10;;;;;;;3.67;2.85;;;7.90;99.90;;;;;;5071151;28;20228;-47
2024/02/29 08:32:40;;;;;;;3.35;2.70;;;7.90;99.90;;;;;;5069356;28;20247;-46
2024/02/29 08:35:09;;;;;;;4.18;2.83;;;7.90;99.90;;;;;;5063568;28;20699;-45
2024/02/29 08:37:37;;;;;;;4.78;2.97;;;7.90;99.90;;;;;;5070532;28;20652;-45
2024/02/29 08:40:08;;;;;;;4.50;3.22;;;7.90;99.90;;;;;;5068586;28;20214;-46
2024/02/29 08:42:37;;;;;;;3.40;2.30;;;7.90;99.90;;;;;;5066693;28;20215;-45
2024/02/29 08:45:06;;;;;;;3.58;2.80;;;7.90;99.90;;;;;;5052476;28;20463;-45
2024/02/29 08:47:38;;;;;;;3.80;2.60;;;7.90;99.90;;;;;;5056725;28;20569;-45
2024/02/29 08:50:08;;;;;;;4.78;2.83;;;7.90;99.90;;;;;;5061638;28;20678;-44
2024/02/29 08:52:38;;;;;;;3.28;2.60;;;7.90;99.90;;;;;;5070774;28;20195;-45
2024/02/29 08:55:08;;;;;;;8.93;3.03;;;7.90;99.90;;;;;;5062860;28;20708;-47
2024/02/29 08:57:37;;;;;;;3.83;2.85;;;7.90;99.90;;;;;;5064990;28;20249;-45
2024/02/29 09:00:08;;;;;;;4.38;2.40;;;7.90;99.90;;;;;;5063297;28;20228;-45
2024/02/29 09:02:38;;;;;;;3.20;2.75;;;7.90;99.90;;;;;;5069022;28;20652;-45
2024/02/29 09:05:07;;;;;;;3.42;2.92;;;7.90;99.90;;;;;;5061032;28;20219;-44
2024/02/29 09:07:37;;;;;;;3.88;2.65;;;7.90;99.90;;;;;;5068620;28;20215;-47
2024/02/29 09:10:06;;;;;;;4.93;3.42;;;7.90;99.90;;;;;;5068439;28;20704;-44
2024/02/29 09:12:36;;;;;;;4.13;2.75;;;7.90;99.90;;;;;;5060553;28;20701;-45
2024/02/29 09:15:08;;;;;;;3.60;2.70;;;7.90;99.90;;;;;;5061861;28;20256;-44
2024/02/29 09:17:38;;;;;;;3.45;2.67;;;7.90;99.90;;;;;;5069579;28;20696;-45
2024/02/29 09:20:08;;;;;;;2.58;2.15;;;7.90;99.90;;;;;;5062658;28;20220;-46
2024/02/29 09:22:37;;;;;;;3.50;2.65;;;7.90;99.90;;;;;;5061111;28;20673;-45
2024/02/29 09:25:06;;;;;;;3.10;2.55;;;7.90;99.90;;;;;;5058198;28;20239;-45
2024/02/29 09:27:35;;;;;;;2.92;2.25;;;7.90;99.90;;;;;;5059128;28;20707;-44
2024/02/29 09:30:06;;;;;;;3.70;2.55;;;7.90;99.90;;;;;;5066627;28;20249;-46
2024/02/29 09:32:38;;;;;;;3.00;2.15;;;7.90;99.90;;;;;;5069187;28;20608;-45
2024/02/29 09:35:08;;;;;;;2.90;2.08;;;7.90;99.90;;;;;;5053994;28;20220;-45
2024/02/29 09:37:37;;;;;;;2.97;2.40;;;7.90;99.90;;;;;;5066286;28;20203;-46
2024/02/29 09:40:08;;;;;;;3.38;2.30;;;7.90;99.90;;;;;;5070071;28;20222;-45
2024/02/29 09:42:37;;;;;;;2.63;2.00;;;7.90;99.90;;;;;;5068915;28;20285;-47
2024/02/29 09:45:11;;;;;;;3.97;2.30;;;7.90;99.90;;;;;;5058178;28;20778;-45
2024/02/29 09:47:41;;;;;;;2.67;1.85;;;8.00;99.90;;;;;;5068755;28;20612;-46
2024/02/29 09:50:11;;;;;;;3.00;2.30;;;8.00;99.90;;;;;;5054288;28;20214;-45
2024/02/29 09:52:40;;;;;;;3.22;2.17;;;8.00;99.90;;;;;;5067712;28;20207;-46
2024/02/29 09:55:13;;;;;;;2.45;2.05;;;8.00;99.90;;;;;;5063146;28;20717;-45
2024/02/29 09:57:42;;;;;;;3.20;2.38;;;8.00;99.90;;;;;;5069772;28;20185;-45
2024/02/29 10:00:12;;;;;;;2.83;2.10;;;8.00;99.90;;;;;;5058856;28;20220;-49
2024/02/29 10:02:43;;;;;;;3.67;1.95;;;8.10;99.90;;;;;;5057448;28;20836;-45
2024/02/29 10:05:12;;;;;;;2.53;2.20;;;8.10;99.90;;;;;;5058080;28;20309;-46
2024/02/29 10:07:44;;;;;;;4.00;2.70;;;8.10;99.90;;;;;;5069029;28;20616;-46
2024/02/29 10:10:13;;;;;;;2.20;1.80;;;8.10;99.90;;;;;;5067267;28;20832;-45
2024/02/29 10:12:43;;;;;;;2.67;1.80;;;8.10;99.90;;;;;;5063744;28;20593;-45
2024/02/29 10:15:12;;;;;;;2.72;1.92;;;8.00;99.90;;;;;;5053967;28;20220;-47
2024/02/29 10:17:40;;;;;;;3.63;2.00;;;8.10;99.90;;;;;;5059083;28;20245;-45
2024/02/29 10:20:12;;;;;;;3.47;2.05;;;8.10;99.90;;;;;;5055850;28;20622;-45
2024/02/29 10:22:42;;;;;;;4.13;2.15;;;8.00;99.90;;;;;;5066379;28;20704;-44
2024/02/29 10:25:13;;;;;;;3.10;1.98;;;8.10;99.90;;;;;;5059613;28;20239;-44
2024/02/29 10:27:41;;;;;;;3.30;1.75;;;8.10;99.90;;;;;;5064013;28;20254;-44
2024/02/29 10:30:13;;;;;;;2.88;1.90;;;8.10;99.90;;;;;;5069918;28;20655;-44
2024/02/29 10:32:42;;;;;;;3.15;2.55;;;8.10;99.90;;;;;;5065696;28;20748;-44
2024/02/29 10:35:19;;;;;;;3.20;2.50;;;8.10;99.90;;;;;;5058910;28;20243;-44
2024/02/29 10:37:49;;;;;;;2.80;1.90;;;8.10;99.90;;;;;;5067713;28;20575;-45
2024/02/29 10:40:18;;;;;;;3.38;1.85;;;8.10;99.90;;;;;;5069297;28;20229;-44
2024/02/29 10:42:50;;;;;;;3.10;2.50;;;8.10;99.90;;;;;;5062158;28;20212;-44
2024/02/29 10:45:19;;;;;;;4.03;2.10;;;8.10;99.90;;;;;;5061088;28;20222;-44
2024/02/29 10:48:12;;;;;;;3.17;2.30;;;8.10;99.90;;;;;;5058661;28;20233;-44
2024/02/29 10:50:54;;;;;;;3.05;2.28;;;8.10;99.90;;;;;;5067541;28;20606;-44
2024/02/29 10:53:37;;;;;;;2.67;1.75;;;8.10;99.90;;;;;;5067132;28;20191;-44
2024/02/29 10:56:12;;;;;;;2.80;1.90;;;8.10;99.90;;;;;;5064949;28;20580;-44
2024/02/29 10:58:42;;;;;;;3.60;2.22;;;8.10;99.90;;;;;;5061339;28;20246;-45
2024/02/29 11:01:13;;;;;;;2.40;1.60;;;8.10;99.90;;;;;;5063281;28;20246;-44
2024/02/29 11:03:42;;;;;;;4.47;2.10;;;8.10;99.90;;;;;;5056710;28;20608;-45
2024/02/29 11:06:13;;;;;;;3.03;2.05;;;8.10;99.90;;;;;;5064718;28;20434;-44
2024/02/29 11:08:42;;;;;;;4.53;2.60;;;8.10;99.90;;;;;;5066282;28;20232;-44
2024/02/29 11:11:11;;;;;;;3.40;2.13;;;8.10;99.90;;;;;;5069155;28;20463;-44
2024/02/29 11:13:40;;;;;;;2.90;2.10;;;8.10;99.90;;;;;;5065212;28;20214;-44
2024/02/29 11:16:11;;;;;;;2.55;1.70;;;8.10;99.90;;;;;;5064680;28;20202;-45
2024/02/29 11:18:42;;;;;;;2.63;2.00;;;8.10;99.90;;;;;;5059639;28;20902;-44
2024/02/29 11:21:14;;;;;;;2.95;2.10;;;8.10;99.90;;;;;;5065272;28;20624;-44
2024/02/29 11:23:42;;;;;;;2.85;1.50;;;8.10;99.90;;;;;;5068525;28;20205;-44
2024/02/29 11:26:11;;;;;;;3.10;2.30;;;8.10;99.90;;;;;;5072482;28;20200;-44
2024/02/29 11:28:43;;;;;;;2.83;1.85;;;8.10;99.90;;;;;;5069387;28;20192;-44
2024/02/29 11:31:15;;;;;;;4.03;1.85;;;8.10;99.90;;;;;;5068744;28;20197;-44
2024/02/29 11:33:46;;;;;;;2.80;2.00;;;8.10;99.90;;;;;;5065407;28;20237;-44
2024/02/29 11:36:17;;;;;;;3.60;2.73;;;8.10;99.90;;;;;;5068704;28;20588;-44
2024/02/29 11:38:46;;;;;;;3.65;1.95;;;8.10;99.90;;;;;;5070700;28;20518;-44
2024/02/29 11:41:17;;;;;;;3.42;1.77;;;8.10;99.90;;;;;;5064411;28;20185;-44
2024/02/29 11:43:46;;;;;;;2.40;1.80;;;8.10;99.90;;;;;;5060725;28;20661;-44
2024/02/29 11:46:15;;;;;;;3.33;2.30;;;8.10;99.90;;;;;;5074144;28;20209;-44
2024/02/29 11:48:44;;;;;;;3.05;2.05;;;8.10;99.90;;;;;;5068972;28;20223;-45
2024/02/29 11:51:12;;;;;;;2.20;1.58;;;8.10;99.90;;;;;;5068417;28;20210;-45
2024/02/29 11:53:44;;;;;;;3.83;1.85;;;8.10;99.90;;;;;;5065208;28;20690;-48
2024/02/29 11:56:13;;;;;;;2.65;2.05;;;8.10;99.90;;;;;;5059469;28;20191;-45
2024/02/29 11:58:45;;;;;;;2.92;2.22;;;8.10;99.90;;;;;;5071512;28;20639;-46
2024/02/29 12:01:14;;;;;;;3.00;2.20;;;8.10;99.90;;;;;;5064541;28;20194;-44
2024/02/29 12:03:44;;;;;;;3.40;2.42;;;8.10;99.90;;;;;;5066410;28;20558;-47
2024/02/29 12:06:13;;;;;;;3.00;1.80;;;8.10;99.90;;;;;;5052695;28;20214;-50
2024/02/29 12:08:42;;;;;;;2.80;2.13;;;8.10;99.90;;;;;;5066019;28;20790;-46
2024/02/29 12:11:12;;;;;;;3.00;1.90;;;8.10;99.90;;;;;;5059002;28;20199;-44
2024/02/29 12:13:43;;;;;;;3.13;1.65;;;8.10;99.90;;;;;;5069637;28;20466;-44
2024/02/29 12:16:12;;;;;;;3.30;2.08;;;8.10;99.90;;;;;;5059633;28;20228;-47
2024/02/29 12:18:41;;;;;;;2.88;1.90;;;8.10;99.90;;;;;;5068025;28;20618;-46
2024/02/29 12:21:13;;;;;;;3.00;1.90;;;8.10;99.90;;;;;;5055959;28;20202;-45
2024/02/29 12:23:42;;;;;;;2.45;1.83;;;8.10;99.90;;;;;;5067545;28;20470;-46
2024/02/29 12:26:12;;;;;;;1.90;1.60;;;8.10;99.90;;;;;;5065007;28;20275;-49
2024/02/29 12:28:42;;;;;;;6.05;2.10;;;8.10;99.90;;;;;;5069955;28;20275;-45
2024/02/29 12:31:10;;;;;;;2.45;1.70;;;8.10;99.90;;;;;;5073201;28;20224;-45
2024/02/29 12:33:38;;;;;;;2.83;1.70;;;8.10;99.90;;;;;;5059236;28;20195;-45
2024/02/29 12:36:07;;;;;;;2.97;2.00;;;8.20;99.90;;;;;;5063244;28;20536;-45
2024/02/29 12:38:37;;;;;;;2.67;1.90;;;8.10;99.90;;;;;;5069669;28;20207;-45
2024/02/29 12:41:10;;;;;;;2.28;1.58;;;8.10;99.90;;;;;;5067232;28;20204;-46
2024/02/29 12:43:38;;;;;;;2.10;1.70;;;8.20;99.90;;;;;;5064839;28;20225;-47
2024/02/29 12:46:07;;;;;;;2.67;1.92;;;8.20;99.90;;;;;;5057196;28;20197;-44
2024/02/29 12:48:36;;;;;;;2.30;1.60;;;8.20;99.90;;;;;;5050113;28;20668;-45
2024/02/29 12:51:06;;;;;;;2.45;1.83;;;8.20;99.90;;;;;;5064333;28;20199;-45
2024/02/29 12:53:37;;;;;;;2.30;1.85;;;8.20;99.90;;;;;;5057615;28;20203;-45
2024/02/29 12:56:06;;;;;;;2.55;1.65;;;8.20;99.90;;;;;;5057480;28;20204;-46
2024/02/29 12:58:37;;;;;;;2.08;1.65;;;8.20;99.90;;;;;;5052252;28;20201;-45
2024/02/29 13:01:06;;;;;;;1.92;1.23;;;8.10;99.90;;;;;;5070262;28;20273;-45
2024/02/29 13:03:37;;;;;;;2.17;1.80;;;8.20;99.90;;;;;;5064227;28;20272;-46
2024/02/29 13:06:06;;;;;;;3.05;1.90;;;8.20;99.90;;;;;;5063445;28;20218;-46
2024/02/29 13:08:37;;;;;;;2.22;1.40;;;8.20;99.90;;;;;;5068953;28;20206;-46
2024/02/29 13:11:07;;;;;;;2.53;1.70;;;8.20;99.90;;;;;;5069704;28;20207;-46